Belmont, North Carolina
Current Conditions -  °F | °C
As of 10:52 AM on Wednesday 28 Jan 2015 (Local Time) from KCLT Reporting Station
Clear Clear  
Wind Chill: 35°   Ceiling: Unl
Heat Index: 39°   Visibility: 10mi
Dew Point: 14°   Wind: 6mph
Humidity: 36%   Direction: NA
Pressure: 30.27"   Gusts: NA
Location:  35.24°N, 81.04°W
Report Text: KCLT 281552Z VRB05KT 10SM CLR 04/M10 A3027 RMK AO2 SLP255 T00391100
Loading
Personal Weather Stations






























Interactive Weather Map New forecast layout! Learn more

10-Day Weather Forecast

Advertisements
Track Severe Weather on mobile